sensor_id;sensor_type;location;lat;lon;timestamp;pressure;altitude;pressure_sealevel;temperature;humidity
33506;BME280;19843;51.040;13.782;2022-07-30T00:01:35;155580.66;;;22.22;100.00
33506;BME280;19843;51.040;13.782;2022-07-30T00:04:03;155548.22;;;22.09;100.00
33506;BME280;19843;51.040;13.782;2022-07-30T00:06:31;155524.81;;;22.00;100.00
33506;BME280;19843;51.040;13.782;2022-07-30T00:08:58;155492.31;;;21.87;100.00
33506;BME280;19843;51.040;13.782;2022-07-30T00:11:26;155474.13;;;21.80;100.00
33506;BME280;19843;51.040;13.782;2022-07-30T00:13:53;155426.13;;;21.62;100.00
33506;BME280;19843;51.040;13.782;2022-07-30T00:16:22;155418.31;;;21.59;100.00
33506;BME280;19843;51.040;13.782;2022-07-30T00:18:50;155393.66;;;21.49;100.00
33506;BME280;19843;51.040;13.782;2022-07-30T00:21:18;155463.75;;;21.76;100.00
33506;BME280;19843;51.040;13.782;2022-07-30T00:24:05;155417.00;;;21.58;100.00
33506;BME280;19843;51.040;13.782;2022-07-30T00:26:33;155470.22;;;21.79;100.00
33506;BME280;19843;51.040;13.782;2022-07-30T00:29:01;155409.22;;;21.55;100.00
33506;BME280;19843;51.040;13.782;2022-07-30T00:31:30;155359.94;;;21.36;100.00
33506;BME280;19843;51.040;13.782;2022-07-30T00:33:57;155365.09;;;21.38;100.00
33506;BME280;19843;51.040;13.782;2022-07-30T00:36:25;155328.75;;;21.24;100.00
33506;BME280;19843;51.040;13.782;2022-07-30T00:38:53;155314.47;;;21.18;100.00
33506;BME280;19843;51.040;13.782;2022-07-30T00:41:20;155309.28;;;21.16;100.00
33506;BME280;19843;51.040;13.782;2022-07-30T00:43:48;155272.91;;;21.02;100.00
33506;BME280;19843;51.040;13.782;2022-07-30T00:46:15;155271.59;;;21.01;100.00
33506;BME280;19843;51.040;13.782;2022-07-30T00:48:44;155298.84;;;21.12;100.00
33506;BME280;19843;51.040;13.782;2022-07-30T00:51:12;155223.59;;;20.83;100.00
33506;BME280;19843;51.040;13.782;2022-07-30T00:53:39;155204.13;;;20.75;100.00
33506;BME280;19843;51.040;13.782;2022-07-30T00:56:07;155227.47;;;20.84;100.00
33506;BME280;19843;51.040;13.782;2022-07-30T00:58:35;155208.03;;;20.77;100.00
33506;BME280;19843;51.040;13.782;2022-07-30T01:01:02;155214.50;;;20.79;100.00
33506;BME280;19843;51.040;13.782;2022-07-30T01:03:30;155258.63;;;20.96;100.00
33506;BME280;19843;51.040;13.782;2022-07-30T01:05:58;155147.03;;;20.53;100.00
33506;BME280;19843;51.040;13.782;2022-07-30T01:08:26;155136.66;;;20.49;100.00
33506;BME280;19843;51.040;13.782;2022-07-30T01:10:53;155157.41;;;20.57;100.00
33506;BME280;19843;51.040;13.782;2022-07-30T01:13:21;155141.88;;;20.51;100.00
33506;BME280;19843;51.040;13.782;2022-07-30T01:15:48;155154.84;;;20.56;100.00
33506;BME280;19843;51.040;13.782;2022-07-30T01:18:16;155149.63;;;20.54;100.00
33506;BME280;19843;51.040;13.782;2022-07-30T01:20:49;155115.94;;;20.41;100.00
33506;BME280;19843;51.040;13.782;2022-07-30T01:23:26;155118.50;;;20.42;100.00
33506;BME280;19843;51.040;13.782;2022-07-30T01:25:57;155113.31;;;20.40;100.00
33506;BME280;19843;51.040;13.782;2022-07-30T01:28:31;155153.53;;;20.55;100.00
33506;BME280;19843;51.040;13.782;2022-07-30T01:31:00;155165.22;;;20.60;100.00
33506;BME280;19843;51.040;13.782;2022-07-30T01:33:29;155121.09;;;20.43;100.00
33506;BME280;19843;51.040;13.782;2022-07-30T01:35:58;155147.03;;;20.53;100.00
33506;BME280;19843;51.040;13.782;2022-07-30T01:38:29;155113.31;;;20.40;100.00
33506;BME280;19843;51.040;13.782;2022-07-30T01:41:03;155165.22;;;20.60;100.00
33506;BME280;19843;51.040;13.782;2022-07-30T01:43:37;155148.34;;;20.53;100.00
33506;BME280;19843;51.040;13.782;2022-07-30T01:46:05;155136.66;;;20.49;100.00
33506;BME280;19843;51.040;13.782;2022-07-30T01:48:36;155079.53;;;20.27;100.00
33506;BME280;19843;51.040;13.782;2022-07-30T01:51:06;155025.06;;;20.05;100.00
33506;BME280;19843;51.040;13.782;2022-07-30T01:53:36;155048.44;;;20.14;100.00
33506;BME280;19843;51.040;13.782;2022-07-30T01:56:06;155035.44;;;20.09;100.00
33506;BME280;19843;51.040;13.782;2022-07-30T01:58:37;154978.41;;;19.87;100.00
33506;BME280;19843;51.040;13.782;2022-07-30T02:01:06;155017.31;;;20.02;100.00
33506;BME280;19843;51.040;13.782;2022-07-30T02:03:34;155018.59;;;20.03;100.00
33506;BME280;19843;51.040;13.782;2022-07-30T02:06:04;154996.53;;;19.94;100.00
33506;BME280;19843;51.040;13.782;2022-07-30T02:08:37;155004.34;;;19.97;100.00
33506;BME280;19843;51.040;13.782;2022-07-30T02:11:10;154983.56;;;19.89;100.00
33506;BME280;19843;51.040;13.782;2022-07-30T02:13:43;154970.59;;;19.84;100.00
33506;BME280;19843;51.040;13.782;2022-07-30T02:16:14;154970.59;;;19.84;100.00
33506;BME280;19843;51.040;13.782;2022-07-30T02:18:47;154983.56;;;19.89;100.00
33506;BME280;19843;51.040;13.782;2022-07-30T02:21:24;154951.19;;;19.76;100.00
33506;BME280;19843;51.040;13.782;2022-07-30T02:24:04;155004.34;;;19.97;100.00
33506;BME280;19843;51.040;13.782;2022-07-30T02:26:37;154951.19;;;19.76;100.00
33506;BME280;19843;51.040;13.782;2022-07-30T02:29:05;154997.81;;;19.95;100.00
33506;BME280;19843;51.040;13.782;2022-07-30T02:31:37;154960.22;;;19.80;100.00
33506;BME280;19843;51.040;13.782;2022-07-30T02:34:07;154983.56;;;19.89;100.00
33506;BME280;19843;51.040;13.782;2022-07-30T02:36:36;155016.00;;;20.02;100.00
33506;BME280;19843;51.040;13.782;2022-07-30T02:39:05;155032.88;;;20.08;100.00
33506;BME280;19843;51.040;13.782;2022-07-30T02:41:36;155048.44;;;20.14;100.00
33506;BME280;19843;51.040;13.782;2022-07-30T02:44:05;155018.59;;;20.03;100.00
33506;BME280;19843;51.040;13.782;2022-07-30T02:46:33;154999.13;;;19.95;100.00
33506;BME280;19843;51.040;13.782;2022-07-30T02:49:04;154999.13;;;19.95;100.00
33506;BME280;19843;51.040;13.782;2022-07-30T02:51:33;155006.94;;;19.98;100.00
33506;BME280;19843;51.040;13.782;2022-07-30T02:54:02;154980.97;;;19.88;100.00
33506;BME280;19843;51.040;13.782;2022-07-30T02:56:30;154974.50;;;19.86;100.00
33506;BME280;19843;51.040;13.782;2022-07-30T02:59:00;154962.84;;;19.81;100.00
33506;BME280;19843;51.040;13.782;2022-07-30T03:01:30;154955.03;;;19.78;100.00
33506;BME280;19843;51.040;13.782;2022-07-30T03:03:59;154947.28;;;19.75;100.00
33506;BME280;19843;51.040;13.782;2022-07-30T03:06:28;154983.56;;;19.89;100.00
33506;BME280;19843;51.040;13.782;2022-07-30T03:08:58;155045.84;;;20.13;100.00
33506;BME280;19843;51.040;13.782;2022-07-30T03:11:29;155005.63;;;19.98;100.00
33506;BME280;19843;51.040;13.782;2022-07-30T03:13:57;154983.56;;;19.89;100.00
33506;BME280;19843;51.040;13.782;2022-07-30T03:16:27;154891.53;;;19.53;100.00
33506;BME280;19843;51.040;13.782;2022-07-30T03:18:59;154877.25;;;19.48;100.00
33506;BME280;19843;51.040;13.782;2022-07-30T03:21:32;154879.84;;;19.49;100.00
33506;BME280;19843;51.040;13.782;2022-07-30T03:24:03;154900.56;;;19.57;100.00
33506;BME280;19843;51.040;13.782;2022-07-30T03:26:33;154894.13;;;19.54;100.00
33506;BME280;19843;51.040;13.782;2022-07-30T03:29:02;154917.44;;;19.63;100.00
33506;BME280;19843;51.040;13.782;2022-07-30T03:31:31;154914.84;;;19.62;100.00
33506;BME280;19843;51.040;13.782;2022-07-30T03:34:04;154929.09;;;19.68;100.00
33506;BME280;19843;51.040;13.782;2022-07-30T03:36:33;154879.84;;;19.49;100.00
33506;BME280;19843;51.040;13.782;2022-07-30T03:39:02;154894.13;;;19.54;100.00
33506;BME280;19843;51.040;13.782;2022-07-30T03:41:31;154877.25;;;19.48;100.00
33506;BME280;19843;51.040;13.782;2022-07-30T03:43:59;154962.84;;;19.81;100.00
33506;BME280;19843;51.040;13.782;2022-07-30T03:46:27;154908.38;;;19.60;100.00
33506;BME280;19843;51.040;13.782;2022-07-30T03:48:57;154933.00;;;19.69;100.00
33506;BME280;19843;51.040;13.782;2022-07-30T03:51:26;154923.94;;;19.66;100.00
33506;BME280;19843;51.040;13.782;2022-07-30T03:53:58;154921.34;;;19.65;100.00
33506;BME280;19843;51.040;13.782;2022-07-30T03:56:26;154881.16;;;19.49;100.00
33506;BME280;19843;51.040;13.782;2022-07-30T03:58:54;154851.28;;;19.37;100.00
33506;BME280;19843;51.040;13.782;2022-07-30T04:01:23;154851.28;;;19.37;100.00
33506;BME280;19843;51.040;13.782;2022-07-30T04:03:51;154882.47;;;19.50;100.00
33506;BME280;19843;51.040;13.782;2022-07-30T04:06:20;154926.56;;;19.67;100.00
33506;BME280;19843;51.040;13.782;2022-07-30T04:08:48;154956.34;;;19.78;100.00
33506;BME280;19843;51.040;13.782;2022-07-30T04:11:15;154955.03;;;19.78;100.00
33506;BME280;19843;51.040;13.782;2022-07-30T04:13:46;154983.56;;;19.89;100.00
33506;BME280;19843;51.040;13.782;2022-07-30T04:16:17;154892.81;;;19.54;100.00
33506;BME280;19843;51.040;13.782;2022-07-30T04:19:11;154870.81;;;19.45;100.00
33506;BME280;19843;51.040;13.782;2022-07-30T04:21:43;154903.19;;;19.58;100.00
33506;BME280;19843;51.040;13.782;2022-07-30T04:24:13;154917.44;;;19.63;100.00
33506;BME280;19843;51.040;13.782;2022-07-30T04:26:42;154874.66;;;19.47;100.00
33506;BME280;19843;51.040;13.782;2022-07-30T04:29:10;154881.16;;;19.49;100.00
33506;BME280;19843;51.040;13.782;2022-07-30T04:31:44;154874.66;;;19.47;100.00
33506;BME280;19843;51.040;13.782;2022-07-30T04:34:13;154864.25;;;19.42;100.00
33506;BME280;19843;51.040;13.782;2022-07-30T04:36:42;154949.88;;;19.76;100.00
33506;BME280;19843;51.040;13.782;2022-07-30T04:39:10;154934.31;;;19.70;100.00
33506;BME280;19843;51.040;13.782;2022-07-30T04:41:38;154848.69;;;19.36;100.00
33506;BME280;19843;51.040;13.782;2022-07-30T04:44:15;154860.34;;;19.41;100.00
33506;BME280;19843;51.040;13.782;2022-07-30T04:46:43;154892.81;;;19.54;100.00
33506;BME280;19843;51.040;13.782;2022-07-30T04:49:11;154870.81;;;19.45;100.00
33506;BME280;19843;51.040;13.782;2022-07-30T04:51:42;154890.22;;;19.53;100.00
33506;BME280;19843;51.040;13.782;2022-07-30T04:54:12;154861.66;;;19.41;100.00
33506;BME280;19843;51.040;13.782;2022-07-30T04:56:42;154923.94;;;19.66;100.00
33506;BME280;19843;51.040;13.782;2022-07-30T04:59:20;154938.22;;;19.71;100.00
33506;BME280;19843;51.040;13.782;2022-07-30T05:01:49;154892.81;;;19.54;100.00
33506;BME280;19843;51.040;13.782;2022-07-30T05:04:18;154922.66;;;19.65;100.00
33506;BME280;19843;51.040;13.782;2022-07-30T05:06:48;154951.19;;;19.76;100.00
33506;BME280;19843;51.040;13.782;2022-07-30T05:09:16;154934.31;;;19.70;100.00
33506;BME280;19843;51.040;13.782;2022-07-30T05:11:49;154953.72;;;19.77;100.00
33506;BME280;19843;51.040;13.782;2022-07-30T05:14:17;154980.97;;;19.88;100.00
33506;BME280;19843;51.040;13.782;2022-07-30T05:16:44;154983.56;;;19.89;100.00
33506;BME280;19843;51.040;13.782;2022-07-30T05:19:11;154995.22;;;19.94;100.00
33506;BME280;19843;51.040;13.782;2022-07-30T05:21:39;155014.69;;;20.01;100.00
33506;BME280;19843;51.040;13.782;2022-07-30T05:24:08;155053.59;;;20.16;100.00
33506;BME280;19843;51.040;13.782;2022-07-30T05:26:35;155032.88;;;20.08;100.00
33506;BME280;19843;51.040;13.782;2022-07-30T05:29:03;155013.41;;;20.01;100.00
33506;BME280;19843;51.040;13.782;2022-07-30T05:31:32;155019.91;;;20.03;100.00
33506;BME280;19843;51.040;13.782;2022-07-30T05:34:00;155009.50;;;19.99;100.00
33506;BME280;19843;51.040;13.782;2022-07-30T05:36:31;155045.84;;;20.13;100.00
33506;BME280;19843;51.040;13.782;2022-07-30T05:38:58;155018.59;;;20.03;100.00
33506;BME280;19843;51.040;13.782;2022-07-30T05:41:27;155056.19;;;20.17;100.00
33506;BME280;19843;51.040;13.782;2022-07-30T05:43:58;155044.53;;;20.13;100.00
33506;BME280;19843;51.040;13.782;2022-07-30T05:46:26;155035.44;;;20.09;100.00
33506;BME280;19843;51.040;13.782;2022-07-30T05:48:54;155008.19;;;19.99;100.00
33506;BME280;19843;51.040;13.782;2022-07-30T05:51:21;155001.72;;;19.96;100.00
33506;BME280;19843;51.040;13.782;2022-07-30T05:53:49;155030.25;;;20.07;100.00
33506;BME280;19843;51.040;13.782;2022-07-30T05:56:17;155060.09;;;20.19;100.00
33506;BME280;19843;51.040;13.782;2022-07-30T05:58:45;155108.13;;;20.38;100.00
33506;BME280;19843;51.040;13.782;2022-07-30T06:01:13;155099.06;;;20.34;100.00
33506;BME280;19843;51.040;13.782;2022-07-30T06:03:40;155088.66;;;20.30;100.00
33506;BME280;19843;51.040;13.782;2022-07-30T06:06:08;155113.31;;;20.40;100.00
33506;BME280;19843;51.040;13.782;2022-07-30T06:08:35;155095.16;;;20.33;100.00
33506;BME280;19843;51.040;13.782;2022-07-30T06:11:03;155084.75;;;20.29;100.00
33506;BME280;19843;51.040;13.782;2022-07-30T06:13:30;155105.50;;;20.37;100.00
33506;BME280;19843;51.040;13.782;2022-07-30T06:15:59;155000.44;;;19.96;100.00
33506;BME280;19843;51.040;13.782;2022-07-30T06:18:26;155045.84;;;20.13;100.00
33506;BME280;19843;51.040;13.782;2022-07-30T06:20:54;155061.41;;;20.19;100.00
33506;BME280;19843;51.040;13.782;2022-07-30T06:23:22;155039.31;;;20.11;100.00
33506;BME280;19843;51.040;13.782;2022-07-30T06:25:50;155001.72;;;19.96;100.00
33506;BME280;19843;51.040;13.782;2022-07-30T06:28:18;154999.13;;;19.95;100.00
33506;BME280;19843;51.040;13.782;2022-07-30T06:31:05;155027.66;;;20.06;100.00
33506;BME280;19843;51.040;13.782;2022-07-30T06:33:32;155071.78;;;20.23;100.00
33506;BME280;19843;51.040;13.782;2022-07-30T06:36:00;155102.91;;;20.36;100.00
33506;BME280;19843;51.040;13.782;2022-07-30T06:38:28;155161.31;;;20.58;100.00
33506;BME280;19843;51.040;13.782;2022-07-30T06:40:55;155157.41;;;20.57;100.00
33506;BME280;19843;51.040;13.782;2022-07-30T06:43:29;155141.88;;;20.51;100.00
33506;BME280;19843;51.040;13.782;2022-07-30T06:45:56;155200.22;;;20.74;100.00
33506;BME280;19843;51.040;13.782;2022-07-30T06:48:25;155233.97;;;20.87;100.00
33506;BME280;19843;51.040;13.782;2022-07-30T06:50:53;155241.75;;;20.90;100.00
33506;BME280;19843;51.040;13.782;2022-07-30T06:53:20;155267.69;;;21.00;100.00
33506;BME280;19843;51.040;13.782;2022-07-30T06:55:48;155309.28;;;21.16;100.00
33506;BME280;19843;51.040;13.782;2022-07-30T06:58:19;155266.38;;;20.99;100.00
33506;BME280;19843;51.040;13.782;2022-07-30T07:00:50;155213.19;;;20.79;100.00
33506;BME280;19843;51.040;13.782;2022-07-30T07:03:18;155240.44;;;20.89;100.00
33506;BME280;19843;51.040;13.782;2022-07-30T07:05:47;155258.63;;;20.96;100.00
33506;BME280;19843;51.040;13.782;2022-07-30T07:08:14;155250.84;;;20.93;100.00
33506;BME280;19843;51.040;13.782;2022-07-30T07:10:43;155253.41;;;20.94;100.00
33506;BME280;19843;51.040;13.782;2022-07-30T07:13:11;155224.84;;;20.83;100.00
33506;BME280;19843;51.040;13.782;2022-07-30T07:15:38;155214.50;;;20.79;100.00
33506;BME280;19843;51.040;13.782;2022-07-30T07:18:06;155222.31;;;20.82;100.00
33506;BME280;19843;51.040;13.782;2022-07-30T07:20:34;155223.59;;;20.83;100.00
33506;BME280;19843;51.040;13.782;2022-07-30T07:23:03;155261.22;;;20.97;100.00
33506;BME280;19843;51.040;13.782;2022-07-30T07:25:34;155227.47;;;20.84;100.00
33506;BME280;19843;51.040;13.782;2022-07-30T07:28:02;155248.25;;;20.92;100.00
33506;BME280;19843;51.040;13.782;2022-07-30T07:30:38;155313.19;;;21.18;100.00
33506;BME280;19843;51.040;13.782;2022-07-30T07:33:05;155310.56;;;21.17;100.00
33506;BME280;19843;51.040;13.782;2022-07-30T07:35:33;155315.78;;;21.19;100.00
33506;BME280;19843;51.040;13.782;2022-07-30T07:38:16;155297.53;;;21.12;100.00
33506;BME280;19843;51.040;13.782;2022-07-30T07:40:44;155179.47;;;20.65;100.00
33506;BME280;19843;51.040;13.782;2022-07-30T07:43:12;155215.78;;;20.80;100.00
33506;BME280;19843;51.040;13.782;2022-07-30T07:45:40;155188.53;;;20.69;100.00
33506;BME280;19843;51.040;13.782;2022-07-30T07:48:08;155134.06;;;20.48;100.00
33506;BME280;19843;51.040;13.782;2022-07-30T07:50:36;155074.38;;;20.24;100.00
33506;BME280;19843;51.040;13.782;2022-07-30T07:53:04;155095.16;;;20.33;100.00
33506;BME280;19843;51.040;13.782;2022-07-30T07:55:33;155100.38;;;20.35;100.00
33506;BME280;19843;51.040;13.782;2022-07-30T07:58:01;155051.00;;;20.15;100.00
33506;BME280;19843;51.040;13.782;2022-07-30T08:00:29;155097.75;;;20.34;100.00
33506;BME280;19843;51.040;13.782;2022-07-30T08:02:57;155121.09;;;20.43;100.00
33506;BME280;19843;51.040;13.782;2022-07-30T08:05:24;155219.69;;;20.81;100.00
33506;BME280;19843;51.040;13.782;2022-07-30T08:08:12;155270.28;;;21.01;100.00
33506;BME280;19843;51.040;13.782;2022-07-30T08:10:41;155249.56;;;20.93;100.00
33506;BME280;19843;51.040;13.782;2022-07-30T08:13:08;155126.31;;;20.45;100.00
33506;BME280;19843;51.040;13.782;2022-07-30T08:15:56;155128.91;;;20.46;100.00
33506;BME280;19843;51.040;13.782;2022-07-30T08:18:23;155163.91;;;20.59;100.00
33506;BME280;19843;51.040;13.782;2022-07-30T08:20:50;155172.97;;;20.63;100.00
33506;BME280;19843;51.040;13.782;2022-07-30T08:23:18;155065.25;;;20.21;100.00
33506;BME280;19843;51.040;13.782;2022-07-30T08:25:48;155028.97;;;20.07;100.00
33506;BME280;19843;51.040;13.782;2022-07-30T08:28:16;155032.88;;;20.08;100.00
33506;BME280;19843;51.040;13.782;2022-07-30T08:31:01;155036.72;;;20.10;100.00
33506;BME280;19843;51.040;13.782;2022-07-30T08:33:29;155106.81;;;20.37;100.00
33506;BME280;19843;51.040;13.782;2022-07-30T08:35:56;155070.47;;;20.23;100.00
33506;BME280;19843;51.040;13.782;2022-07-30T08:38:29;155065.25;;;20.21;100.00
33506;BME280;19843;51.040;13.782;2022-07-30T08:40:58;155040.63;;;20.11;100.00
33506;BME280;19843;51.040;13.782;2022-07-30T08:43:27;155114.63;;;20.40;100.00
33506;BME280;19843;51.040;13.782;2022-07-30T08:45:55;155087.34;;;20.30;100.00
33506;BME280;19843;51.040;13.782;2022-07-30T08:48:23;155079.53;;;20.27;100.00
33506;BME280;19843;51.040;13.782;2022-07-30T08:50:51;155089.91;;;20.31;100.00
33506;BME280;19843;51.040;13.782;2022-07-30T08:53:20;155117.19;;;20.41;100.00
33506;BME280;19843;51.040;13.782;2022-07-30T08:55:48;155084.75;;;20.29;100.00
33506;BME280;19843;51.040;13.782;2022-07-30T08:58:24;155069.16;;;20.22;100.00
33506;BME280;19843;51.040;13.782;2022-07-30T09:00:53;155106.81;;;20.37;100.00
33506;BME280;19843;51.040;13.782;2022-07-30T09:03:26;155119.78;;;20.42;100.00
33506;BME280;19843;51.040;13.782;2022-07-30T09:05:53;155115.94;;;20.41;100.00
33506;BME280;19843;51.040;13.782;2022-07-30T09:08:21;155083.44;;;20.28;100.00
33506;BME280;19843;51.040;13.782;2022-07-30T09:10:49;155097.75;;;20.34;100.00
33506;BME280;19843;51.040;13.782;2022-07-30T09:13:25;155110.72;;;20.39;100.00
33506;BME280;19843;51.040;13.782;2022-07-30T09:15:53;155113.31;;;20.40;100.00
33506;BME280;19843;51.040;13.782;2022-07-30T09:18:29;155149.63;;;20.54;100.00
33506;BME280;19843;51.040;13.782;2022-07-30T09:20:59;155184.66;;;20.67;100.00
33506;BME280;19843;51.040;13.782;2022-07-30T09:23:26;155134.06;;;20.48;100.00
33506;BME280;19843;51.040;13.782;2022-07-30T09:25:57;155074.38;;;20.24;100.00
33506;BME280;19843;51.040;13.782;2022-07-30T09:28:31;155154.84;;;20.56;100.00
33506;BME280;19843;51.040;13.782;2022-07-30T09:30:59;155054.91;;;20.17;100.00
33506;BME280;19843;51.040;13.782;2022-07-30T09:33:31;155009.50;;;19.99;100.00
33506;BME280;19843;51.040;13.782;2022-07-30T09:35:59;154980.97;;;19.88;100.00
33506;BME280;19843;51.040;13.782;2022-07-30T09:38:27;154990.06;;;19.92;100.00
33506;BME280;19843;51.040;13.782;2022-07-30T09:40:56;155003.03;;;19.97;100.00
33506;BME280;19843;51.040;13.782;2022-07-30T09:43:43;155003.03;;;19.97;100.00
33506;BME280;19843;51.040;13.782;2022-07-30T09:46:11;155093.84;;;20.32;100.00
33506;BME280;19843;51.040;13.782;2022-07-30T09:48:39;155076.94;;;20.25;100.00
33506;BME280;19843;51.040;13.782;2022-07-30T09:51:07;154984.88;;;19.90;100.00
33506;BME280;19843;51.040;13.782;2022-07-30T09:54:02;155025.06;;;20.05;100.00
33506;BME280;19843;51.040;13.782;2022-07-30T09:56:31;155009.50;;;19.99;100.00
33506;BME280;19843;51.040;13.782;2022-07-30T09:59:00;155022.47;;;20.04;100.00
33506;BME280;19843;51.040;13.782;2022-07-30T10:01:48;155000.44;;;19.96;100.00
33506;BME280;19843;51.040;13.782;2022-07-30T10:04:23;154991.38;;;19.92;100.00
33506;BME280;19843;51.040;13.782;2022-07-30T10:06:51;155022.47;;;20.04;100.00
33506;BME280;19843;51.040;13.782;2022-07-30T10:09:25;154993.97;;;19.93;100.00
33506;BME280;19843;51.040;13.782;2022-07-30T10:11:53;155025.06;;;20.05;100.00
33506;BME280;19843;51.040;13.782;2022-07-30T10:14:26;155017.31;;;20.02;100.00
33506;BME280;19843;51.040;13.782;2022-07-30T10:16:58;155045.84;;;20.13;100.00
33506;BME280;19843;51.040;13.782;2022-07-30T10:19:28;154995.22;;;19.94;100.00
33506;BME280;19843;51.040;13.782;2022-07-30T10:22:07;154997.81;;;19.95;100.00
33506;BME280;19843;51.040;13.782;2022-07-30T10:24:37;154978.41;;;19.87;100.00
33506;BME280;19843;51.040;13.782;2022-07-30T10:27:07;154980.97;;;19.88;100.00
33506;BME280;19843;51.040;13.782;2022-07-30T10:29:38;154999.13;;;19.95;100.00
33506;BME280;19843;51.040;13.782;2022-07-30T10:32:08;155078.22;;;20.26;100.00
33506;BME280;19843;51.040;13.782;2022-07-30T10:34:38;155047.13;;;20.14;100.00
33506;BME280;19843;51.040;13.782;2022-07-30T10:37:09;155167.81;;;20.61;100.00
33506;BME280;19843;51.040;13.782;2022-07-30T10:39:44;155224.84;;;20.83;100.00
33506;BME280;19843;51.040;13.782;2022-07-30T10:42:23;155287.19;;;21.07;100.00
33506;BME280;19843;51.040;13.782;2022-07-30T10:45:06;155375.47;;;21.42;100.00
33506;BME280;19843;51.040;13.782;2022-07-30T10:47:44;155405.31;;;21.54;100.00
33506;BME280;19843;51.040;13.782;2022-07-30T10:50:15;155466.38;;;21.77;100.00
33506;BME280;19843;51.040;13.782;2022-07-30T10:52:49;155517.03;;;21.97;100.00
33506;BME280;19843;51.040;13.782;2022-07-30T10:55:19;155446.88;;;21.70;100.00
33506;BME280;19843;51.040;13.782;2022-07-30T10:58:05;155494.94;;;21.88;100.00
33506;BME280;19843;51.040;13.782;2022-07-30T11:00:35;155640.41;;;22.45;100.00
33506;BME280;19843;51.040;13.782;2022-07-30T11:03:24;155676.78;;;22.59;100.00
33506;BME280;19843;51.040;13.782;2022-07-30T11:06:26;155708.03;;;22.71;100.00
33506;BME280;19843;51.040;13.782;2022-07-30T11:08:54;155785.97;;;23.02;100.00
33506;BME280;19843;51.040;13.782;2022-07-30T11:11:46;155739.22;;;22.84;100.00
33506;BME280;19843;51.040;13.782;2022-07-30T11:14:54;155689.75;;;22.64;100.00
33506;BME280;19843;51.040;13.782;2022-07-30T11:17:23;155632.59;;;22.42;100.00
33506;BME280;19843;51.040;13.782;2022-07-30T11:20:10;155700.16;;;22.68;100.00
33506;BME280;19843;51.040;13.782;2022-07-30T11:22:39;155787.28;;;23.02;100.00
33506;BME280;19843;51.040;13.782;2022-07-30T11:25:38;155626.13;;;22.40;100.00
33506;BME280;19843;51.040;13.782;2022-07-30T11:28:33;155669.00;;;22.56;100.00
33506;BME280;19843;51.040;13.782;2022-07-30T11:31:02;155740.47;;;22.84;100.00
33506;BME280;19843;51.040;13.782;2022-07-30T11:33:37;155749.59;;;22.88;100.00
33506;BME280;19843;51.040;13.782;2022-07-30T11:36:10;155687.16;;;22.63;100.00
33506;BME280;19843;51.040;13.782;2022-07-30T11:38:57;155791.19;;;23.04;100.00
33506;BME280;19843;51.040;13.782;2022-07-30T11:41:32;155718.41;;;22.76;100.00
33506;BME280;19843;51.040;13.782;2022-07-30T11:44:27;155722.31;;;22.77;100.00
33506;BME280;19843;51.040;13.782;2022-07-30T11:46:55;155741.78;;;22.85;100.00
33506;BME280;19843;51.040;13.782;2022-07-30T11:49:23;155788.56;;;23.03;100.00
33506;BME280;19843;51.040;13.782;2022-07-30T11:51:52;155923.78;;;23.55;100.00
33506;BME280;19843;51.040;13.782;2022-07-30T11:54:20;155939.41;;;23.62;100.00
33506;BME280;19843;51.040;13.782;2022-07-30T11:56:49;155874.38;;;23.36;100.00
33506;BME280;19843;51.040;13.782;2022-07-30T11:59:17;155853.53;;;23.28;100.00
33506;BME280;19843;51.040;13.782;2022-07-30T12:01:48;155841.84;;;23.24;100.00
33506;BME280;19843;51.040;13.782;2022-07-30T12:04:16;155853.53;;;23.28;100.00
33506;BME280;19843;51.040;13.782;2022-07-30T12:06:46;155840.53;;;23.23;100.00
33506;BME280;19843;51.040;13.782;2022-07-30T12:09:21;155762.59;;;22.93;100.00
33506;BME280;19843;51.040;13.782;2022-07-30T12:11:53;155726.22;;;22.79;100.00
33506;BME280;19843;51.040;13.782;2022-07-30T12:14:20;155826.25;;;23.17;100.00
33506;BME280;19843;51.040;13.782;2022-07-30T12:16:49;155802.88;;;23.08;100.00
33506;BME280;19843;51.040;13.782;2022-07-30T12:19:17;155809.34;;;23.11;100.00
33506;BME280;19843;51.040;13.782;2022-07-30T12:21:46;155876.91;;;23.37;100.00
33506;BME280;19843;51.040;13.782;2022-07-30T12:24:23;155887.34;;;23.41;100.00
33506;BME280;19843;51.040;13.782;2022-07-30T12:26:51;155962.78;;;23.71;100.00
33506;BME280;19843;51.040;13.782;2022-07-30T12:29:19;156105.88;;;24.26;100.00
33506;BME280;19843;51.040;13.782;2022-07-30T12:31:47;156243.72;;;24.80;100.00
33506;BME280;19843;51.040;13.782;2022-07-30T12:34:18;156340.03;;;25.17;100.00
33506;BME280;19843;51.040;13.782;2022-07-30T12:36:47;156290.63;;;24.98;100.00
33506;BME280;19843;51.040;13.782;2022-07-30T12:39:19;156177.38;;;24.54;100.00
33506;BME280;19843;51.040;13.782;2022-07-30T12:41:48;156166.97;;;24.50;100.00
33506;BME280;19843;51.040;13.782;2022-07-30T12:44:37;156030.38;;;23.97;100.00
33506;BME280;19843;51.040;13.782;2022-07-30T12:47:17;156059.00;;;24.08;100.00
33506;BME280;19843;51.040;13.782;2022-07-30T12:49:47;155934.16;;;23.60;100.00